sensor_id;sensor_type;location;lat;lon;timestamp;P1;durP1;ratioP1;P2;durP2;ratioP2
24008;SDS011;12217;50.792;4.372;2023-04-28T00:01:42;44.88;;;32.33;;
24008;SDS011;12217;50.792;4.372;2023-04-28T00:04:08;45.30;;;30.92;;
24008;SDS011;12217;50.792;4.372;2023-04-28T00:06:34;47.10;;;32.55;;
24008;SDS011;12217;50.792;4.372;2023-04-28T00:09:01;49.00;;;32.33;;
24008;SDS011;12217;50.792;4.372;2023-04-28T00:11:27;43.70;;;33.03;;
24008;SDS011;12217;50.792;4.372;2023-04-28T00:13:53;49.80;;;33.78;;
24008;SDS011;12217;50.792;4.372;2023-04-28T00:16:18;48.72;;;34.45;;
24008;SDS011;12217;50.792;4.372;2023-04-28T00:18:44;52.53;;;34.63;;
24008;SDS011;12217;50.792;4.372;2023-04-28T00:21:10;52.85;;;36.30;;
24008;SDS011;12217;50.792;4.372;2023-04-28T00:23:35;51.47;;;35.35;;
24008;SDS011;12217;50.792;4.372;2023-04-28T00:26:01;52.33;;;37.22;;
24008;SDS011;12217;50.792;4.372;2023-04-28T00:28:26;51.58;;;36.70;;
24008;SDS011;12217;50.792;4.372;2023-04-28T00:30:52;55.70;;;37.40;;
24008;SDS011;12217;50.792;4.372;2023-04-28T00:33:17;54.08;;;36.95;;
24008;SDS011;12217;50.792;4.372;2023-04-28T00:35:43;55.63;;;36.90;;
24008;SDS011;12217;50.792;4.372;2023-04-28T00:38:09;52.45;;;38.33;;
24008;SDS011;12217;50.792;4.372;2023-04-28T00:40:35;56.80;;;37.78;;
24008;SDS011;12217;50.792;4.372;2023-04-28T00:43:02;51.53;;;37.35;;
24008;SDS011;12217;50.792;4.372;2023-04-28T00:45:28;57.55;;;37.83;;
24008;SDS011;12217;50.792;4.372;2023-04-28T00:47:54;51.22;;;37.38;;
24008;SDS011;12217;50.792;4.372;2023-04-28T00:50:21;54.30;;;37.15;;
24008;SDS011;12217;50.792;4.372;2023-04-28T00:52:48;55.00;;;37.05;;
24008;SDS011;12217;50.792;4.372;2023-04-28T00:55:15;56.42;;;37.97;;
24008;SDS011;12217;50.792;4.372;2023-04-28T00:57:41;50.30;;;36.45;;
24008;SDS011;12217;50.792;4.372;2023-04-28T01:00:07;51.85;;;37.80;;
24008;SDS011;12217;50.792;4.372;2023-04-28T01:02:36;53.33;;;37.05;;
24008;SDS011;12217;50.792;4.372;2023-04-28T01:05:02;49.72;;;35.97;;
24008;SDS011;12217;50.792;4.372;2023-04-28T01:07:28;48.13;;;35.63;;
24008;SDS011;12217;50.792;4.372;2023-04-28T01:09:54;48.15;;;37.33;;
24008;SDS011;12217;50.792;4.372;2023-04-28T01:12:19;51.05;;;36.63;;
24008;SDS011;12217;50.792;4.372;2023-04-28T01:14:46;50.03;;;35.90;;
24008;SDS011;12217;50.792;4.372;2023-04-28T01:17:12;49.83;;;36.30;;
24008;SDS011;12217;50.792;4.372;2023-04-28T01:19:38;50.58;;;36.42;;
24008;SDS011;12217;50.792;4.372;2023-04-28T01:22:04;49.65;;;37.42;;
24008;SDS011;12217;50.792;4.372;2023-04-28T01:24:30;48.60;;;37.05;;
24008;SDS011;12217;50.792;4.372;2023-04-28T01:26:56;51.20;;;37.30;;
24008;SDS011;12217;50.792;4.372;2023-04-28T01:29:22;51.28;;;38.03;;
24008;SDS011;12217;50.792;4.372;2023-04-28T01:31:47;51.15;;;37.90;;
24008;SDS011;12217;50.792;4.372;2023-04-28T01:34:13;48.10;;;36.35;;
24008;SDS011;12217;50.792;4.372;2023-04-28T01:36:39;50.53;;;38.40;;
24008;SDS011;12217;50.792;4.372;2023-04-28T01:39:04;50.00;;;36.78;;
24008;SDS011;12217;50.792;4.372;2023-04-28T01:41:30;51.40;;;36.25;;
24008;SDS011;12217;50.792;4.372;2023-04-28T01:43:58;50.92;;;38.58;;
24008;SDS011;12217;50.792;4.372;2023-04-28T01:46:24;51.55;;;37.78;;
24008;SDS011;12217;50.792;4.372;2023-04-28T01:48:50;52.00;;;39.42;;
24008;SDS011;12217;50.792;4.372;2023-04-28T01:51:15;47.85;;;37.45;;
24008;SDS011;12217;50.792;4.372;2023-04-28T01:53:41;54.88;;;38.70;;
24008;SDS011;12217;50.792;4.372;2023-04-28T01:56:07;47.90;;;37.00;;
24008;SDS011;12217;50.792;4.372;2023-04-28T01:58:33;53.20;;;37.75;;
24008;SDS011;12217;50.792;4.372;2023-04-28T02:00:58;55.25;;;38.88;;
24008;SDS011;12217;50.792;4.372;2023-04-28T02:03:24;51.67;;;39.35;;
24008;SDS011;12217;50.792;4.372;2023-04-28T02:05:50;55.20;;;39.20;;
24008;SDS011;12217;50.792;4.372;2023-04-28T02:08:15;56.90;;;40.97;;
24008;SDS011;12217;50.792;4.372;2023-04-28T02:10:41;57.20;;;39.08;;
24008;SDS011;12217;50.792;4.372;2023-04-28T02:13:07;59.65;;;41.80;;
24008;SDS011;12217;50.792;4.372;2023-04-28T02:15:33;59.92;;;43.95;;
24008;SDS011;12217;50.792;4.372;2023-04-28T02:18:03;67.35;;;46.20;;
24008;SDS011;12217;50.792;4.372;2023-04-28T02:20:29;68.18;;;47.10;;
24008;SDS011;12217;50.792;4.372;2023-04-28T02:22:54;65.30;;;45.83;;
24008;SDS011;12217;50.792;4.372;2023-04-28T02:25:20;65.95;;;45.22;;
24008;SDS011;12217;50.792;4.372;2023-04-28T02:27:46;68.53;;;45.65;;
24008;SDS011;12217;50.792;4.372;2023-04-28T02:30:11;62.47;;;42.63;;
24008;SDS011;12217;50.792;4.372;2023-04-28T02:32:37;60.65;;;42.08;;
24008;SDS011;12217;50.792;4.372;2023-04-28T02:35:03;59.13;;;43.53;;
24008;SDS011;12217;50.792;4.372;2023-04-28T02:37:29;64.82;;;44.50;;
24008;SDS011;12217;50.792;4.372;2023-04-28T02:39:54;66.60;;;43.50;;
24008;SDS011;12217;50.792;4.372;2023-04-28T02:42:20;69.82;;;44.15;;
24008;SDS011;12217;50.792;4.372;2023-04-28T02:44:46;69.22;;;45.10;;
24008;SDS011;12217;50.792;4.372;2023-04-28T02:47:12;66.65;;;44.72;;
24008;SDS011;12217;50.792;4.372;2023-04-28T02:49:37;67.72;;;43.45;;
24008;SDS011;12217;50.792;4.372;2023-04-28T02:52:03;63.42;;;44.00;;
24008;SDS011;12217;50.792;4.372;2023-04-28T02:54:29;62.80;;;43.67;;
24008;SDS011;12217;50.792;4.372;2023-04-28T02:56:55;64.07;;;42.65;;
24008;SDS011;12217;50.792;4.372;2023-04-28T02:59:22;59.55;;;40.13;;
24008;SDS011;12217;50.792;4.372;2023-04-28T03:01:48;61.83;;;40.40;;
24008;SDS011;12217;50.792;4.372;2023-04-28T03:04:15;54.17;;;38.05;;
24008;SDS011;12217;50.792;4.372;2023-04-28T03:06:41;57.38;;;37.42;;
24008;SDS011;12217;50.792;4.372;2023-04-28T03:09:07;54.83;;;37.97;;
24008;SDS011;12217;50.792;4.372;2023-04-28T03:11:34;57.42;;;38.85;;
24008;SDS011;12217;50.792;4.372;2023-04-28T03:13:59;59.95;;;38.55;;
24008;SDS011;12217;50.792;4.372;2023-04-28T03:16:25;58.13;;;37.70;;
24008;SDS011;12217;50.792;4.372;2023-04-28T03:18:51;60.90;;;39.63;;
24008;SDS011;12217;50.792;4.372;2023-04-28T03:21:17;55.22;;;39.10;;
24008;SDS011;12217;50.792;4.372;2023-04-28T03:23:42;53.28;;;37.88;;
24008;SDS011;12217;50.792;4.372;2023-04-28T03:26:08;54.25;;;39.03;;
24008;SDS011;12217;50.792;4.372;2023-04-28T03:28:34;55.53;;;39.22;;
24008;SDS011;12217;50.792;4.372;2023-04-28T03:30:59;54.58;;;37.58;;
24008;SDS011;12217;50.792;4.372;2023-04-28T03:33:26;53.83;;;39.17;;
24008;SDS011;12217;50.792;4.372;2023-04-28T03:35:52;54.28;;;39.35;;
24008;SDS011;12217;50.792;4.372;2023-04-28T03:38:18;57.15;;;38.83;;
24008;SDS011;12217;50.792;4.372;2023-04-28T03:40:44;53.92;;;37.38;;
24008;SDS011;12217;50.792;4.372;2023-04-28T03:43:10;52.92;;;36.15;;
24008;SDS011;12217;50.792;4.372;2023-04-28T03:45:35;52.60;;;36.65;;
24008;SDS011;12217;50.792;4.372;2023-04-28T03:48:01;49.47;;;35.53;;
24008;SDS011;12217;50.792;4.372;2023-04-28T03:50:27;45.83;;;34.53;;
24008;SDS011;12217;50.792;4.372;2023-04-28T03:52:53;46.95;;;33.38;;
24008;SDS011;12217;50.792;4.372;2023-04-28T03:55:18;46.53;;;33.00;;
24008;SDS011;12217;50.792;4.372;2023-04-28T03:57:44;45.10;;;33.35;;
24008;SDS011;12217;50.792;4.372;2023-04-28T04:00:10;45.97;;;32.67;;
24008;SDS011;12217;50.792;4.372;2023-04-28T04:02:36;41.75;;;32.83;;
24008;SDS011;12217;50.792;4.372;2023-04-28T04:05:01;41.33;;;32.15;;
24008;SDS011;12217;50.792;4.372;2023-04-28T04:07:27;43.20;;;32.40;;
24008;SDS011;12217;50.792;4.372;2023-04-28T04:09:53;43.10;;;33.25;;
24008;SDS011;12217;50.792;4.372;2023-04-28T04:12:18;41.20;;;31.05;;
24008;SDS011;12217;50.792;4.372;2023-04-28T04:14:44;39.33;;;31.75;;
24008;SDS011;12217;50.792;4.372;2023-04-28T04:17:10;41.78;;;31.88;;
24008;SDS011;12217;50.792;4.372;2023-04-28T04:19:35;40.60;;;31.38;;
24008;SDS011;12217;50.792;4.372;2023-04-28T04:22:01;39.95;;;29.70;;
24008;SDS011;12217;50.792;4.372;2023-04-28T04:24:26;38.22;;;29.45;;
24008;SDS011;12217;50.792;4.372;2023-04-28T04:26:52;36.63;;;28.00;;
24008;SDS011;12217;50.792;4.372;2023-04-28T04:29:18;38.95;;;28.35;;
24008;SDS011;12217;50.792;4.372;2023-04-28T04:31:43;36.00;;;27.17;;
24008;SDS011;12217;50.792;4.372;2023-04-28T04:34:10;34.10;;;25.10;;
24008;SDS011;12217;50.792;4.372;2023-04-28T04:36:36;29.90;;;22.67;;
24008;SDS011;12217;50.792;4.372;2023-04-28T04:39:01;34.78;;;25.10;;
24008;SDS011;12217;50.792;4.372;2023-04-28T04:41:27;32.55;;;25.17;;
24008;SDS011;12217;50.792;4.372;2023-04-28T04:43:52;30.65;;;23.92;;
24008;SDS011;12217;50.792;4.372;2023-04-28T04:46:18;29.25;;;23.60;;
24008;SDS011;12217;50.792;4.372;2023-04-28T04:48:44;26.25;;;20.88;;
24008;SDS011;12217;50.792;4.372;2023-04-28T04:51:09;28.00;;;21.20;;
24008;SDS011;12217;50.792;4.372;2023-04-28T04:53:35;24.05;;;18.75;;
24008;SDS011;12217;50.792;4.372;2023-04-28T04:56:01;20.88;;;16.50;;
24008;SDS011;12217;50.792;4.372;2023-04-28T04:58:27;19.45;;;16.30;;
24008;SDS011;12217;50.792;4.372;2023-04-28T05:00:53;18.23;;;15.80;;
24008;SDS011;12217;50.792;4.372;2023-04-28T05:03:19;16.50;;;14.52;;
24008;SDS011;12217;50.792;4.372;2023-04-28T05:05:44;14.93;;;13.32;;
24008;SDS011;12217;50.792;4.372;2023-04-28T05:08:10;16.23;;;14.02;;
24008;SDS011;12217;50.792;4.372;2023-04-28T05:10:36;14.48;;;11.48;;
24008;SDS011;12217;50.792;4.372;2023-04-28T05:13:02;11.88;;;10.68;;
24008;SDS011;12217;50.792;4.372;2023-04-28T05:15:28;11.45;;;10.27;;
24008;SDS011;12217;50.792;4.372;2023-04-28T05:17:55;12.02;;;10.80;;
24008;SDS011;12217;50.792;4.372;2023-04-28T05:20:20;13.05;;;11.75;;
24008;SDS011;12217;50.792;4.372;2023-04-28T05:22:47;11.65;;;10.55;;
24008;SDS011;12217;50.792;4.372;2023-04-28T05:25:12;12.43;;;11.18;;
24008;SDS011;12217;50.792;4.372;2023-04-28T05:27:38;13.05;;;11.75;;
24008;SDS011;12217;50.792;4.372;2023-04-28T05:30:06;12.55;;;11.25;;
24008;SDS011;12217;50.792;4.372;2023-04-28T05:32:33;13.38;;;12.00;;
24008;SDS011;12217;50.792;4.372;2023-04-28T05:34:59;14.18;;;12.77;;
24008;SDS011;12217;50.792;4.372;2023-04-28T05:37:25;12.98;;;11.63;;
24008;SDS011;12217;50.792;4.372;2023-04-28T05:39:50;13.85;;;12.35;;
24008;SDS011;12217;50.792;4.372;2023-04-28T05:42:16;14.18;;;12.63;;
24008;SDS011;12217;50.792;4.372;2023-04-28T05:44:41;17.63;;;13.38;;
24008;SDS011;12217;50.792;4.372;2023-04-28T05:47:07;15.80;;;13.45;;
24008;SDS011;12217;50.792;4.372;2023-04-28T05:49:33;14.57;;;13.07;;
24008;SDS011;12217;50.792;4.372;2023-04-28T05:51:58;15.07;;;13.20;;
24008;SDS011;12217;50.792;4.372;2023-04-28T05:54:24;15.90;;;12.93;;
24008;SDS011;12217;50.792;4.372;2023-04-28T05:56:51;14.23;;;12.57;;
24008;SDS011;12217;50.792;4.372;2023-04-28T05:59:17;17.20;;;12.60;;
24008;SDS011;12217;50.792;4.372;2023-04-28T06:01:43;14.27;;;12.65;;
24008;SDS011;12217;50.792;4.372;2023-04-28T06:04:09;14.50;;;13.00;;
24008;SDS011;12217;50.792;4.372;2023-04-28T06:06:35;15.43;;;12.55;;
24008;SDS011;12217;50.792;4.372;2023-04-28T06:09:01;14.80;;;13.30;;
24008;SDS011;12217;50.792;4.372;2023-04-28T06:11:27;13.40;;;12.00;;
24008;SDS011;12217;50.792;4.372;2023-04-28T06:13:53;13.38;;;12.07;;
24008;SDS011;12217;50.792;4.372;2023-04-28T06:16:18;13.32;;;12.02;;
24008;SDS011;12217;50.792;4.372;2023-04-28T06:18:44;14.95;;;12.05;;
24008;SDS011;12217;50.792;4.372;2023-04-28T06:21:10;13.68;;;12.35;;
24008;SDS011;12217;50.792;4.372;2023-04-28T06:23:35;13.55;;;12.15;;
24008;SDS011;12217;50.792;4.372;2023-04-28T06:26:02;14.75;;;12.38;;
24008;SDS011;12217;50.792;4.372;2023-04-28T06:28:28;13.27;;;11.73;;
24008;SDS011;12217;50.792;4.372;2023-04-28T06:30:54;12.93;;;11.63;;
24008;SDS011;12217;50.792;4.372;2023-04-28T06:33:19;12.32;;;11.13;;
24008;SDS011;12217;50.792;4.372;2023-04-28T06:35:45;12.50;;;11.23;;
24008;SDS011;12217;50.792;4.372;2023-04-28T06:38:11;12.30;;;11.05;;
24008;SDS011;12217;50.792;4.372;2023-04-28T06:40:36;12.90;;;11.50;;
24008;SDS011;12217;50.792;4.372;2023-04-28T06:43:03;12.43;;;11.20;;
24008;SDS011;12217;50.792;4.372;2023-04-28T06:45:30;13.15;;;11.82;;
24008;SDS011;12217;50.792;4.372;2023-04-28T06:47:55;11.80;;;10.43;;
24008;SDS011;12217;50.792;4.372;2023-04-28T06:50:22;13.40;;;11.00;;
24008;SDS011;12217;50.792;4.372;2023-04-28T06:52:48;12.13;;;10.85;;
24008;SDS011;12217;50.792;4.372;2023-04-28T06:55:14;12.98;;;11.10;;
24008;SDS011;12217;50.792;4.372;2023-04-28T06:57:41;12.82;;;9.88;;
24008;SDS011;12217;50.792;4.372;2023-04-28T07:00:07;10.73;;;9.73;;
24008;SDS011;12217;50.792;4.372;2023-04-28T07:02:34;10.02;;;9.10;;
24008;SDS011;12217;50.792;4.372;2023-04-28T07:05:00;10.88;;;9.65;;
24008;SDS011;12217;50.792;4.372;2023-04-28T07:07:27;10.98;;;9.98;;
24008;SDS011;12217;50.792;4.372;2023-04-28T07:09:53;11.45;;;10.45;;
24008;SDS011;12217;50.792;4.372;2023-04-28T07:12:19;12.70;;;11.48;;
24008;SDS011;12217;50.792;4.372;2023-04-28T07:14:45;12.57;;;11.38;;
24008;SDS011;12217;50.792;4.372;2023-04-28T07:17:11;12.77;;;11.55;;
24008;SDS011;12217;50.792;4.372;2023-04-28T07:19:36;12.82;;;11.57;;
24008;SDS011;12217;50.792;4.372;2023-04-28T07:22:02;10.45;;;9.55;;
24008;SDS011;12217;50.792;4.372;2023-04-28T07:24:27;13.65;;;12.05;;
24008;SDS011;12217;50.792;4.372;2023-04-28T07:26:54;11.48;;;10.35;;
24008;SDS011;12217;50.792;4.372;2023-04-28T07:29:21;13.48;;;12.07;;
24008;SDS011;12217;50.792;4.372;2023-04-28T07:31:46;18.15;;;14.00;;
24008;SDS011;12217;50.792;4.372;2023-04-28T07:34:12;11.30;;;10.20;;
24008;SDS011;12217;50.792;4.372;2023-04-28T07:36:38;14.40;;;12.90;;
24008;SDS011;12217;50.792;4.372;2023-04-28T07:39:04;22.63;;;16.48;;
24008;SDS011;12217;50.792;4.372;2023-04-28T07:41:29;18.83;;;13.43;;
24008;SDS011;12217;50.792;4.372;2023-04-28T07:43:59;11.65;;;10.40;;
24008;SDS011;12217;50.792;4.372;2023-04-28T07:46:25;18.60;;;13.65;;
24008;SDS011;12217;50.792;4.372;2023-04-28T07:48:51;10.00;;;8.80;;
24008;SDS011;12217;50.792;4.372;2023-04-28T07:51:16;11.77;;;9.70;;
24008;SDS011;12217;50.792;4.372;2023-04-28T07:53:42;12.65;;;10.18;;
24008;SDS011;12217;50.792;4.372;2023-04-28T07:56:07;5.40;;;4.88;;
24008;SDS011;12217;50.792;4.372;2023-04-28T07:58:33;6.82;;;6.20;;
24008;SDS011;12217;50.792;4.372;2023-04-28T08:00:59;6.72;;;6.05;;
24008;SDS011;12217;50.792;4.372;2023-04-28T08:03:24;5.68;;;5.18;;
24008;SDS011;12217;50.792;4.372;2023-04-28T08:05:50;5.72;;;5.18;;
24008;SDS011;12217;50.792;4.372;2023-04-28T08:08:15;6.60;;;5.32;;
24008;SDS011;12217;50.792;4.372;2023-04-28T08:10:41;5.00;;;4.60;;
24008;SDS011;12217;50.792;4.372;2023-04-28T08:13:07;4.70;;;4.30;;
24008;SDS011;12217;50.792;4.372;2023-04-28T08:15:33;6.22;;;4.50;;
24008;SDS011;12217;50.792;4.372;2023-04-28T08:17:59;6.25;;;4.55;;
24008;SDS011;12217;50.792;4.372;2023-04-28T08:20:24;5.35;;;4.88;;
24008;SDS011;12217;50.792;4.372;2023-04-28T08:22:50;6.40;;;5.80;;
24008;SDS011;12217;50.792;4.372;2023-04-28T08:25:16;5.53;;;5.13;;
24008;SDS011;12217;50.792;4.372;2023-04-28T08:27:42;5.78;;;5.28;;
24008;SDS011;12217;50.792;4.372;2023-04-28T08:30:08;5.57;;;5.18;;
24008;SDS011;12217;50.792;4.372;2023-04-28T08:32:34;5.80;;;5.32;;
24008;SDS011;12217;50.792;4.372;2023-04-28T08:35:00;5.72;;;5.22;;
24008;SDS011;12217;50.792;4.372;2023-04-28T08:37:26;8.45;;;5.35;;
24008;SDS011;12217;50.792;4.372;2023-04-28T08:39:51;3.80;;;3.50;;
24008;SDS011;12217;50.792;4.372;2023-04-28T08:42:27;4.10;;;3.80;;
24008;SDS011;12217;50.792;4.372;2023-04-28T08:44:54;4.25;;;3.85;;
24008;SDS011;12217;50.792;4.372;2023-04-28T08:47:23;2.70;;;2.42;;
24008;SDS011;12217;50.792;4.372;2023-04-28T08:49:56;3.20;;;2.55;;
24008;SDS011;12217;50.792;4.372;2023-04-28T08:52:30;2.17;;;1.77;;
24008;SDS011;12217;50.792;4.372;2023-04-28T08:54:57;2.65;;;1.50;;
24008;SDS011;12217;50.792;4.372;2023-04-28T08:57:27;1.50;;;1.40;;
24008;SDS011;12217;50.792;4.372;2023-04-28T08:59:58;2.20;;;1.60;;
24008;SDS011;12217;50.792;4.372;2023-04-28T09:02:24;1.50;;;1.40;;
24008;SDS011;12217;50.792;4.372;2023-04-28T09:04:50;1.60;;;1.50;;
24008;SDS011;12217;50.792;4.372;2023-04-28T09:07:16;1.40;;;1.30;;
24008;SDS011;12217;50.792;4.372;2023-04-28T09:09:41;1.70;;;1.60;;
24008;SDS011;12217;50.792;4.372;2023-04-28T09:12:09;2.83;;;1.65;;
24008;SDS011;12217;50.792;4.372;2023-04-28T09:14:35;1.75;;;1.65;;
24008;SDS011;12217;50.792;4.372;2023-04-28T09:17:02;2.78;;;1.77;;
24008;SDS011;12217;50.792;4.372;2023-04-28T09:19:36;2.88;;;2.40;;
24008;SDS011;12217;50.792;4.372;2023-04-28T09:22:04;3.97;;;2.20;;
24008;SDS011;12217;50.792;4.372;2023-04-28T09:27:01;3.10;;;2.90;;
24008;SDS011;12217;50.792;4.372;2023-04-28T09:29:31;3.05;;;2.85;;
24008;SDS011;12217;50.792;4.372;2023-04-28T09:32:13;3.53;;;3.00;;
24008;SDS011;12217;50.792;4.372;2023-04-28T09:34:49;5.13;;;3.78;;
24008;SDS011;12217;50.792;4.372;2023-04-28T09:37:16;4.05;;;3.65;;
24008;SDS011;12217;50.792;4.372;2023-04-28T09:39:47;3.78;;;3.47;;
24008;SDS011;12217;50.792;4.372;2023-04-28T09:45:02;4.88;;;3.53;;
24008;SDS011;12217;50.792;4.372;2023-04-28T09:47:32;4.50;;;4.10;;
24008;SDS011;12217;50.792;4.372;2023-04-28T09:50:01;4.55;;;4.15;;
24008;SDS011;12217;50.792;4.372;2023-04-28T09:52:28;5.13;;;4.05;;
24008;SDS011;12217;50.792;4.372;2023-04-28T09:54:54;6.40;;;5.10;;
24008;SDS011;12217;50.792;4.372;2023-04-28T09:57:21;4.38;;;3.55;;
24008;SDS011;12217;50.792;4.372;2023-04-28T09:59:51;4.32;;;3.92;;
24008;SDS011;12217;50.792;4.372;2023-04-28T10:02:18;3.70;;;3.28;;
24008;SDS011;12217;50.792;4.372;2023-04-28T10:04:45;4.63;;;4.22;;
24008;SDS011;12217;50.792;4.372;2023-04-28T10:07:12;5.65;;;5.15;;
24008;SDS011;12217;50.792;4.372;2023-04-28T10:09:40;6.00;;;5.50;;
24008;SDS011;12217;50.792;4.372;2023-04-28T10:12:14;10.85;;;8.48;;
24008;SDS011;12217;50.792;4.372;2023-04-28T10:14:41;9.63;;;8.00;;
24008;SDS011;12217;50.792;4.372;2023-04-28T10:17:09;5.90;;;5.40;;
24008;SDS011;12217;50.792;4.372;2023-04-28T10:19:35;9.10;;;6.85;;
24008;SDS011;12217;50.792;4.372;2023-04-28T10:24:34;6.07;;;5.47;;
24008;SDS011;12217;50.792;4.372;2023-04-28T10:27:13;5.13;;;4.63;;
24008;SDS011;12217;50.792;4.372;2023-04-28T10:29:40;5.15;;;4.32;;
24008;SDS011;12217;50.792;4.372;2023-04-28T10:32:16;5.38;;;4.70;;
24008;SDS011;12217;50.792;4.372;2023-04-28T10:34:50;3.45;;;3.20;;
24008;SDS011;12217;50.792;4.372;2023-04-28T10:37:17;4.78;;;2.85;;
24008;SDS011;12217;50.792;4.372;2023-04-28T10:42:50;4.15;;;3.25;;
24008;SDS011;12217;50.792;4.372;2023-04-28T10:45:57;3.20;;;2.90;;
24008;SDS011;12217;50.792;4.372;2023-04-28T10:56:09;2.97;;;2.78;;
24008;SDS011;12217;50.792;4.372;2023-04-28T10:58:41;2.85;;;2.65;;
24008;SDS011;12217;50.792;4.372;2023-04-28T11:16:52;3.75;;;3.40;;
24008;SDS011;12217;50.792;4.372;2023-04-28T11:19:27;2.00;;;1.80;;
24008;SDS011;12217;50.792;4.372;2023-04-28T11:21:54;1.50;;;1.40;;
24008;SDS011;12217;50.792;4.372;2023-04-28T11:24:22;2.60;;;2.40;;
24008;SDS011;12217;50.792;4.372;2023-04-28T11:26:54;3.63;;;2.47;;
24008;SDS011;12217;50.792;4.372;2023-04-28T11:29:30;2.00;;;1.90;;
24008;SDS011;12217;50.792;4.372;2023-04-28T11:31:57;2.03;;;1.67;;
24008;SDS011;12217;50.792;4.372;2023-04-28T11:34:23;2.25;;;1.80;;
24008;SDS011;12217;50.792;4.372;2023-04-28T11:36:49;2.80;;;2.00;;
24008;SDS011;12217;50.792;4.372;2023-04-28T11:39:15;2.72;;;2.50;;
24008;SDS011;12217;50.792;4.372;2023-04-28T11:41:44;2.83;;;2.63;;
24008;SDS011;12217;50.792;4.372;2023-04-28T11:46:49;3.83;;;2.95;;
24008;SDS011;12217;50.792;4.372;2023-04-28T11:49:31;5.03;;;4.20;;
24008;SDS011;12217;50.792;4.372;2023-04-28T11:52:08;5.45;;;3.92;;
24008;SDS011;12217;50.792;4.372;2023-04-28T11:54:34;3.15;;;2.72;;
24008;SDS011;12217;50.792;4.372;2023-04-28T11:57:01;3.05;;;2.85;;
24008;SDS011;12217;50.792;4.372;2023-04-28T11:59:32;3.08;;;2.88;;
24008;SDS011;12217;50.792;4.372;2023-04-28T12:02:05;3.70;;;2.85;;
24008;SDS011;12217;50.792;4.372;2023-04-28T12:04:32;3.33;;;2.78;;
24008;SDS011;12217;50.792;4.372;2023-04-28T12:07:06;3.30;;;3.00;;
24008;SDS011;12217;50.792;4.372;2023-04-28T12:09:36;4.22;;;2.67;;
24008;SDS011;12217;50.792;4.372;2023-04-28T12:12:04;2.80;;;2.55;;
24008;SDS011;12217;50.792;4.372;2023-04-28T12:14:31;3.58;;;2.15;;
24008;SDS011;12217;50.792;4.372;2023-04-28T12:17:24;1.73;;;1.63;;
24008;SDS011;12217;50.792;4.372;2023-04-28T12:19:51;1.83;;;1.73;;
24008;SDS011;12217;50.792;4.372;2023-04-28T12:22:17;1.98;;;1.67;;
24008;SDS011;12217;50.792;4.372;2023-04-28T12:24:43;3.15;;;2.10;;
24008;SDS011;12217;50.792;4.372;2023-04-28T12:27:13;2.53;;;1.90;;
24008;SDS011;12217;50.792;4.372;2023-04-28T12:29:45;2.22;;;1.52;;
24008;SDS011;12217;50.792;4.372;2023-04-28T12:32:12;1.80;;;1.70;;
24008;SDS011;12217;50.792;4.372;2023-04-28T12:34:38;2.05;;;1.75;;
24008;SDS011;12217;50.792;4.372;2023-04-28T12:37:05;4.10;;;1.70;;
24008;SDS011;12217;50.792;4.372;2023-04-28T12:39:34;3.15;;;1.85;;
24008;SDS011;12217;50.792;4.372;2023-04-28T12:42:01;2.20;;;1.95;;
24008;SDS011;12217;50.792;4.372;2023-04-28T12:44:34;3.67;;;2.58;;
24008;SDS011;12217;50.792;4.372;2023-04-28T12:47:10;2.95;;;2.65;;
24008;SDS011;12217;50.792;4.372;2023-04-28T12:49:36;2.13;;;1.92;;
24008;SDS011;12217;50.792;4.372;2023-04-28T12:52:02;2.10;;;1.90;;
24008;SDS011;12217;50.792;4.372;2023-04-28T12:54:29;2.10;;;1.80;;
24008;SDS011;12217;50.792;4.372;2023-04-28T12:56:55;4.10;;;1.90;;
24008;SDS011;12217;50.792;4.372;2023-04-28T12:59:21;1.40;;;1.30;;
24008;SDS011;12217;50.792;4.372;2023-04-28T13:01:47;3.10;;;1.60;;
24008;SDS011;12217;50.792;4.372;2023-04-28T13:04:14;2.20;;;1.73;;
24008;SDS011;12217;50.792;4.372;2023-04-28T13:06:40;2.58;;;1.70;;
24008;SDS011;12217;50.792;4.372;2023-04-28T13:09:08;3.15;;;1.70;;
24008;SDS011;12217;50.792;4.372;2023-04-28T13:11:35;2.08;;;1.85;;
24008;SDS011;12217;50.792;4.372;2023-04-28T13:14:01;2.30;;;1.40;;
24008;SDS011;12217;50.792;4.372;2023-04-28T13:16:27;3.33;;;1.50;;
24008;SDS011;12217;50.792;4.372;2023-04-28T13:18:54;3.05;;;2.03;;
24008;SDS011;12217;50.792;4.372;2023-04-28T13:21:23;1.67;;;1.50;;
24008;SDS011;12217;50.792;4.372;2023-04-28T13:23:50;2.47;;;1.70;;
24008;SDS011;12217;50.792;4.372;2023-04-28T13:26:20;2.10;;;1.70;;
24008;SDS011;12217;50.792;4.372;2023-04-28T13:28:47;1.88;;;1.67;;
24008;SDS011;12217;50.792;4.372;2023-04-28T13:31:13;1.48;;;1.38;;
24008;SDS011;12217;50.792;4.372;2023-04-28T13:33:39;2.97;;;1.42;;
24008;SDS011;12217;50.792;4.372;2023-04-28T13:36:05;1.60;;;1.50;;
24008;SDS011;12217;50.792;4.372;2023-04-28T13:38:32;5.25;;;1.58;;
24008;SDS011;12217;50.792;4.372;2023-04-28T13:40:58;1.77;;;1.65;;
24008;SDS011;12217;50.792;4.372;2023-04-28T13:43:24;3.60;;;2.22;;
24008;SDS011;12217;50.792;4.372;2023-04-28T13:45:50;5.80;;;3.38;;
24008;SDS011;12217;50.792;4.372;2023-04-28T13:48:16;2.28;;;1.60;;
24008;SDS011;12217;50.792;4.372;2023-04-28T13:50:42;2.10;;;1.98;;
24008;SDS011;12217;50.792;4.372;2023-04-28T13:53:08;2.45;;;1.40;;
24008;SDS011;12217;50.792;4.372;2023-04-28T13:55:33;1.50;;;1.40;;
24008;SDS011;12217;50.792;4.372;2023-04-28T13:57:59;1.33;;;1.23;;
24008;SDS011;12217;50.792;4.372;2023-04-28T14:00:28;3.35;;;2.00;;
24008;SDS011;12217;50.792;4.372;2023-04-28T14:02:56;1.33;;;1.10;;
24008;SDS011;12217;50.792;4.372;2023-04-28T14:05:22;1.75;;;1.15;;
24008;SDS011;12217;50.792;4.372;2023-04-28T14:07:48;1.90;;;1.70;;
24008;SDS011;12217;50.792;4.372;2023-04-28T14:10:14;1.73;;;1.63;;
24008;SDS011;12217;50.792;4.372;2023-04-28T14:12:40;2.05;;;1.48;;
24008;SDS011;12217;50.792;4.372;2023-04-28T14:15:06;1.52;;;1.30;;
24008;SDS011;12217;50.792;4.372;2023-04-28T14:17:32;2.38;;;1.40;;
24008;SDS011;12217;50.792;4.372;2023-04-28T14:19:59;1.58;;;1.48;;
24008;SDS011;12217;50.792;4.372;2023-04-28T14:22:25;1.55;;;1.40;;
24008;SDS011;12217;50.792;4.372;2023-04-28T14:24:51;1.73;;;1.40;;
24008;SDS011;12217;50.792;4.372;2023-04-28T14:27:17;1.77;;;1.10;;
24008;SDS011;12217;50.792;4.372;2023-04-28T14:29:43;1.77;;;1.30;;
24008;SDS011;12217;50.792;4.372;2023-04-28T14:32:12;1.42;;;1.25;;
24008;SDS011;12217;50.792;4.372;2023-04-28T14:34:45;1.52;;;1.42;;
24008;SDS011;12217;50.792;4.372;2023-04-28T14:37:12;1.50;;;1.38;;
24008;SDS011;12217;50.792;4.372;2023-04-28T14:39:38;1.60;;;1.40;;
24008;SDS011;12217;50.792;4.372;2023-04-28T14:42:04;1.80;;;1.10;;
24008;SDS011;12217;50.792;4.372;2023-04-28T14:44:30;2.15;;;1.30;;
24008;SDS011;12217;50.792;4.372;2023-04-28T14:46:56;1.27;;;1.13;;
24008;SDS011;12217;50.792;4.372;2023-04-28T14:49:22;1.33;;;1.23;;
24008;SDS011;12217;50.792;4.372;2023-04-28T14:51:48;1.40;;;1.10;;
24008;SDS011;12217;50.792;4.372;2023-04-28T14:54:13;1.67;;;1.20;;
24008;SDS011;12217;50.792;4.372;2023-04-28T14:56:39;1.25;;;1.10;;
24008;SDS011;12217;50.792;4.372;2023-04-28T14:59:05;1.42;;;1.23;;
24008;SDS011;12217;50.792;4.372;2023-04-28T15:01:30;2.17;;;1.50;;
24008;SDS011;12217;50.792;4.372;2023-04-28T15:03:56;2.97;;;1.60;;
24008;SDS011;12217;50.792;4.372;2023-04-28T15:06:22;2.45;;;1.40;;
24008;SDS011;12217;50.792;4.372;2023-04-28T15:08:48;9.00;;;5.57;;